^^
Datos históricos de la estación: Murcia-Puente Tocinos
Diario Informe para Diciembre 3, 2019 Unidades:  Ingés    Métrico   Ambas
Diario Semanal Mensual Anual
  Máxima: Mínima: Promedio:
Temperatura: 57 °F 51.3 °F 54 °F
Punto de rocio: 53.4 °F 45 °F 49.3 °F
Humedad: 95% 71% 85%
Velocidad viento: 17.8mph 0mph 8.9mph
Racha viento: 33.4mph - -
Viento- - ESE
Presión: 29.9 in 29.8 in -
Precipitación: 0.83 in    
 
 
Tabla de datos para Diciembre 3, 2019
Hora Temperatura Punto de rocio Presión Viento Velocidad viento Racha viento Humedad Intensidad lluvia(por hora) Nubes
00:04 55 °F 53.2 °F 29.9 in NNE 10.8 mph 23.7 mph 94% 0.09 in
00:09 54.9 °F 53.4 °F 29.9 in NNE 11.2 mph 24.2 mph 95% 0.1 in
00:14 54.9 °F 53.4 °F 29.9 in NNE 11.4 mph 21 mph 95% 0.12 in
00:19 54.9 °F 53.4 °F 29.9 in NNE 11.4 mph 19 mph 95% 0.13 in
00:24 54.7 °F 53.2 °F 29.9 in NNE 11.4 mph 19 mph 95% 0.13 in
00:29 54.7 °F 53.2 °F 29.9 in NE 11.4 mph 19 mph 95% 0.14 in
00:34 54.7 °F 53.1 °F 29.9 in NE 11.4 mph 19 mph 94.5% 0.15 in
00:39 54.5 °F 52.9 °F 29.9 in NE 11.4 mph 18 mph 94% 0.17 in
00:44 54.5 °F 52.7 °F 29.9 in NNE 8.5 mph 17.8 mph 94.1% 0.17 in
00:49 54.3 °F 52.5 °F 29.9 in NE 7.4 mph 19.7 mph 94% 0.18 in
00:54 54.3 °F 52.5 °F 29.9 in NNE 9.1 mph 20 mph 94% 0.2 in
00:59 54.3 °F 52.7 °F 29.9 in NE 9.7 mph 19.6 mph 94.2% 0.2 in
01:04 54.3 °F 52.9 °F 29.9 in NNE 10.8 mph 21.9 mph 95% 0.21 in
01:09 54.3 °F 52.9 °F 29.9 in NE 11.2 mph 24.6 mph 95% 0.22 in
01:14 54.3 °F 52.9 °F 29.9 in NNE 13.7 mph 25 mph 95% 0.22 in
01:19 54.3 °F 52.9 °F 29.9 in NE 14.7 mph 24.6 mph 95% 0.22 in
01:24 54.3 °F 52.9 °F 29.9 in NE 14.5 mph 25 mph 95% 0.23 in
01:29 54.3 °F 52.9 °F 29.9 in NE 14.5 mph 24 mph 95% 0.24 in
01:34 54.3 °F 52.9 °F 29.9 in NNE 11.1 mph 16.1 mph 95% 0.24 in
01:39 54.3 °F 52.9 °F 29.9 in North 9.7 mph 16 mph 95% 0.24 in
01:44 54.3 °F 52.9 °F 29.9 in NNO 6.5 mph 9 mph 95% 0.25 in
01:49 54.1 °F 52.9 °F 29.9 in NNE 5.2 mph 11.5 mph 95% 0.26 in
01:54 54.1 °F 52.7 °F 29.9 in North 4.8 mph 12 mph 95% 0.25 in
01:59 54.1 °F 52.7 °F 29.9 in NNE 4.7 mph 9 mph 95% 0.24 in
02:04 54.1 °F 52.7 °F 29.9 in NO 4.7 mph 9.7 mph 95% 0.24 in
02:09 54.1 °F 52.7 °F 29.9 in ENE 4.7 mph 10 mph 95% 0.22 in
02:14 54.1 °F 52.7 °F 29.9 in North 3.5 mph 13.8 mph 95% 0.22 in
02:19 54.1 °F 52.7 °F 29.9 in NNE 3.1 mph 14 mph 95% 0.22 in
02:24 54 °F 52.5 °F 29.9 in North 4.2 mph 16.3 mph 94.6% 0.2 in
02:29 54 °F 52.2 °F 29.9 in NNE 4.7 mph 16 mph 93.9% 0.19 in
02:34 53.8 °F 51.8 °F 29.9 in NNE 6.3 mph 15 mph 93% 0.18 in
02:39 53.8 °F 51.6 °F 29.9 in North 6.9 mph 12 mph 92.1% 0.19 in
02:44 53.8 °F 51.4 °F 29.9 in North 5.8 mph 12.7 mph 92% 0.19 in
02:49 53.6 °F 51.1 °F 29.9 in North 5.4 mph 15.6 mph 91.5% 0.18 in
02:54 53.6 °F 50.7 °F 29.9 in NNO 6 mph 16.1 mph 90.4% 0.17 in
02:59 53.6 °F 50.4 °F 29.9 in North 6.2 mph 16.1 mph 88.9% 0.15 in
03:04 53.8 °F 50.2 °F 29.9 in North 6.7 mph 19 mph 87.8% 0.16 in
03:09 54 °F 50.2 °F 29.9 in North 6.9 mph 19 mph 87% 0.15 in
03:14 54 °F 50.2 °F 29.9 in North 6.9 mph 12.7 mph 87% 0.13 in
03:19 53.8 °F 50 °F 29.9 in Este 6.9 mph 13 mph 87% 0.11 in
03:24 53.8 °F 50.2 °F 29.9 in NO 5.3 mph 10.7 mph 87.5% 0.09 in
03:29 53.8 °F 50.2 °F 29.9 in NO 4.7 mph 12.7 mph 88% 0.09 in
03:34 53.6 °F 50.4 °F 29.9 in ONO 6 mph 13 mph 89% 0.08 in
03:39 53.6 °F 50.7 °F 29.9 in NO 6.4 mph 10 mph 89.8% 0.07 in
03:44 53.4 °F 50.5 °F 29.9 in NO 5.7 mph 10.4 mph 90% 0.05 in
03:49 53.4 °F 50.5 °F 29.9 in NO 5.4 mph 11.5 mph 90% 0.04 in
03:54 53.4 °F 50.5 °F 29.9 in NO 5.8 mph 12 mph 90% 0.03 in
03:59 53.4 °F 50.5 °F 29.9 in ONO 5.9 mph 12 mph 90% 0.03 in
04:04 53.6 °F 50.7 °F 29.9 in NO 5.3 mph 9 mph 90% 0.03 in
04:09 53.4 °F 50.5 °F 29.9 in ONO 5.2 mph 5 mph 90% 0.01 in
04:14 53.4 °F 50.5 °F 29.9 in ONO 2.9 mph 5 mph 90% 0.01 in
04:19 53.4 °F 50.5 °F 29.9 in ONO 2 mph 3.6 mph 90% 0.01 in
04:24 53.4 °F 50.5 °F 29.9 in ONO 1.6 mph 4 mph 90% 0.01 in
04:29 53.4 °F 50.5 °F 29.9 in ONO 1.4 mph 4.3 mph 90% 0.01 in
04:34 53.4 °F 50.7 °F 29.9 in SSE 1.8 mph 5 mph 90.6% 0 in
04:39 53.4 °F 50.9 °F 29.9 in SE 2 mph 5 mph 91% 0 in
04:44 53.4 °F 50.9 °F 29.9 in SSE 2 mph 5 mph 91% 0 in
04:49 53.4 °F 50.9 °F 29.9 in SSO 2 mph 6.2 mph 91% 0 in
04:54 53.2 °F 50.5 °F 29.9 in ENE 2.7 mph 9.2 mph 90.4% 0 in
04:59 53.6 °F 50.2 °F 29.9 in NE 2.9 mph 11.4 mph 88.1% 0 in
05:04 54 °F 49.8 °F 29.9 in NNE 5.2 mph 12 mph 85.8% 0 in
05:09 54.1 °F 49.6 °F 29.9 in NE 5.9 mph 10 mph 84.7% 0 in
05:14 54.1 °F 49.5 °F 29.9 in NE 5.9 mph 10.7 mph 84% 0 in
05:19 54.3 °F 49.5 °F 29.9 in NE 5.9 mph 13 mph 83.8% 0 in
05:24 54.5 °F 49.5 °F 29.9 in NE 7 mph 16.3 mph 83.2% 0 in
05:29 54.5 °F 49.5 °F 29.9 in NNE 7.4 mph 16 mph 83.1% 0 in
05:34 54.7 °F 49.6 °F 29.9 in NNE 7.4 mph 14 mph 83% 0 in
05:39 54.5 °F 49.5 °F 29.9 in NE 7.4 mph 9.7 mph 83% 0 in
05:44 54.7 °F 49.6 °F 29.9 in NNE 6.3 mph 10.4 mph 83% 0 in
05:49 54.7 °F 49.6 °F 29.9 in NNE 5.9 mph 10 mph 83% 0 in
05:54 54.7 °F 49.5 °F 29.9 in NNE 5 mph 7 mph 82.8% 0 in
05:59 54.9 °F 49.3 °F 29.9 in NNE 4.7 mph 10.4 mph 81.8% 0 in
06:04 55 °F 49.3 °F 29.9 in NE 5.1 mph 16.3 mph 80.6% 0 in
06:09 55.6 °F 49.3 °F 29.9 in NE 5.2 mph 18.4 mph 79.3% 0 in
06:14 55.8 °F 49.1 °F 29.9 in NE 8.8 mph 18 mph 78.2% 0 in
06:19 55.8 °F 49.1 °F 29.9 in NE 10 mph 16 mph 78.4% 0 in
06:24 55.6 °F 49.3 °F 29.9 in NNE 8.9 mph 15 mph 79% 0 in
06:29 55.6 °F 49.3 °F 29.9 in NNE 8.5 mph 15 mph 79% 0 in
06:34 55.6 °F 49.3 °F 29.9 in NE 8.5 mph 15 mph 79% 0 in
06:39 55.4 °F 49.3 °F 29.9 in NE 8.5 mph 14.5 mph 79.9% 0 in
06:44 55.2 °F 49.3 °F 29.9 in NE 6.8 mph 15 mph 80% 0 in
06:49 55.2 °F 49.3 °F 29.9 in NNE 6.2 mph 15.2 mph 80.3% 0 in
06:54 55.2 °F 49.5 °F 29.9 in NNE 7.9 mph 17.3 mph 80.6% 0 in
06:59 55.4 °F 49.5 °F 29.9 in NNE 8.5 mph 17 mph 80% 0 in
07:04 55.8 °F 49.1 °F 29.9 in NNE 9.6 mph 19.7 mph 78.7% 0 in
07:09 55.9 °F 49.1 °F 29.9 in NNE 10 mph 20 mph 77.4% 0 in
07:14 56.3 °F 49.1 °F 29.9 in NNE 10.9 mph 22.3 mph 76.6% 0 in
07:19 56.5 °F 49.1 °F 29.9 in NNE 11.2 mph 29.1 mph 76.2% 0 in
07:24 56.7 °F 49.3 °F 29.9 in NNE 12.5 mph 29 mph 76.5% 0 in
07:29 56.7 °F 49.5 °F 29.9 in NE 13 mph 31.3 mph 77% 0 in
07:34 56.7 °F 49.8 °F 29.9 in NE 14.1 mph 31 mph 77.9% 0 in
07:39 56.5 °F 50 °F 29.9 in NNE 14.5 mph 25.3 mph 78.9% 0 in
07:44 56.1 °F 50 °F 29.9 in NE 12.3 mph 25 mph 79.8% 0 in
07:49 56.1 °F 50 °F 29.9 in NNE 11.4 mph 22 mph 80% 0 in
07:54 56.1 °F 50 °F 29.9 in NNE 11.2 mph 24.8 mph 79.8% 0 in
07:59 56.5 °F 49.5 °F 29.9 in NNE 11.2 mph 25.3 mph 77.3% 0 in
08:04 56.7 °F 48.9 °F 29.9 in NE 13.7 mph 25.3 mph 75.2% 0 in
08:09 56.8 °F 48.7 °F 29.9 in NNE 14.5 mph 26.5 mph 74.1% 0 in
08:14 57 °F 48.6 °F 29.9 in NNE 13.8 mph 27.9 mph 73.6% 0 in
08:19 56.8 °F 48.4 °F 29.9 in NNE 13.5 mph 28 mph 73.2% 0 in
08:24 56.8 °F 48.4 °F 29.9 in NNE 14.2 mph 31.1 mph 73% 0 in
08:29 56.8 °F 48.4 °F 29.9 in NNE 14.5 mph 31 mph 73% 0 in
08:34 56.8 °F 48.2 °F 29.9 in NE 14.7 mph 24.6 mph 72.6% 0 in
08:39 56.8 °F 47.8 °F 29.9 in NNE 14.7 mph 25 mph 72% 0 in
08:44 56.8 °F 47.8 °F 29.9 in NE 15.3 mph 24.8 mph 72% 0 in
08:49 56.7 °F 47.8 °F 29.9 in NNE 15.6 mph 27.9 mph 72% 0 in
08:54 56.7 °F 48 °F 29.9 in NNE 14.4 mph 28 mph 72.8% 0 in
08:59 56.7 °F 48.4 °F 29.9 in NE 14 mph 26 mph 73.5% 0 in
09:04 56.7 °F 48.4 °F 29.9 in NNE 14.4 mph 27.3 mph 73.6% 0 in
09:09 56.7 °F 48 °F 29.9 in NE 14.5 mph 28 mph 72.8% 0 in
09:14 56.8 °F 48 °F 29.9 in NNE 15.5 mph 28.8 mph 72% 0 in
09:19 57 °F 48 °F 29.9 in NNE 15.9 mph 29 mph 72% 0 in
09:24 57 °F 48.2 °F 29.9 in NE 14.5 mph 27.6 mph 72.6% 0 in
09:29 56.8 °F 48.4 °F 29.9 in NNE 14 mph 28 mph 73.3% 0 in
09:34 56.8 °F 48.6 °F 29.9 in NE 12.9 mph 25 mph 74% 0 in
09:39 56.7 °F 48.6 °F 29.9 in NE 12.5 mph 23 mph 74.7% 0 in
09:44 56.5 °F 48.6 °F 29.9 in NE 12 mph 24.2 mph 75% 0 in
09:49 56.5 °F 48.6 °F 29.9 in NE 11.8 mph 27.9 mph 74.9% 0 in
09:54 56.5 °F 48.4 °F 29.9 in NNE 13.2 mph 28 mph 74% 0 in
09:59 56.5 °F 48.4 °F 29.9 in NE 13.7 mph 27 mph 74% 0 in
10:04 56.5 °F 48.4 °F 29.9 in NNE 13.5 mph 26 mph 74% 0 in
10:09 56.5 °F 48.4 °F 29.9 in NE 13.5 mph 25.3 mph 74% 0 in
10:14 56.5 °F 48.4 °F 29.9 in NNE 14.4 mph 25 mph 74.4% 0 in
10:19 56.1 °F 48.4 °F 29.9 in NNE 14.7 mph 22 mph 75.1% 0 in
10:24 56.1 °F 48.4 °F 29.9 in NNE 13.9 mph 24.2 mph 75.4% 0 in
10:29 56.1 °F 48.2 °F 29.9 in NNE 13.5 mph 28.8 mph 74.7% 0 in
10:34 56.3 °F 48 °F 29.9 in NNE 14.4 mph 29 mph 74% 0 in
10:39 56.3 °F 48 °F 29.9 in NNE 14.7 mph 27 mph 73.5% 0 in
10:44 56.5 °F 47.8 °F 29.9 in NE 14.2 mph 27.6 mph 73% 0 in
10:49 56.5 °F 47.8 °F 29.9 in NNE 14 mph 28 mph 73% 0 in
10:54 56.5 °F 47.8 °F 29.9 in NE 14.8 mph 26.5 mph 73% 0 in
10:59 56.5 °F 48 °F 29.9 in NE 15.2 mph 26.5 mph 73% 0 in
11:04 56.7 °F 48 °F 29.9 in NNE 14.7 mph 26 mph 72.9% 0 in
11:09 56.7 °F 48 °F 29.9 in NE 14.5 mph 31.3 mph 72.8% 0 in
11:14 56.7 °F 48 °F 29.9 in NNE 15.8 mph 31 mph 73% 0.01 in
11:19 56.7 °F 48 °F 29.9 in NNE 16.3 mph 30 mph 73% 0.01 in
11:24 56.7 °F 47.8 °F 29.9 in NE 17.1 mph 32.2 mph 72.2% 0.01 in
11:29 56.7 °F 47.7 °F 29.9 in NE 17.5 mph 32.2 mph 71.6% 0.01 in
11:34 56.7 °F 47.7 °F 29.9 in NE 17.7 mph 32 mph 72% 0.01 in
11:39 56.7 °F 47.5 °F 29.9 in NNE 17.8 mph 29 mph 71.1% 0.01 in
11:44 56.7 °F 47.5 °F 29.9 in NNE 15.9 mph 29.1 mph 71% 0.01 in
11:49 56.7 °F 47.5 °F 29.9 in NE 15.2 mph 29 mph 71% 0.01 in
11:54 56.7 °F 47.7 °F 29.9 in NNE 16.5 mph 29 mph 71.9% 0.01 in
11:59 56.7 °F 47.7 °F 29.9 in NNE 17 mph 27.6 mph 72% 0.01 in
12:04 56.7 °F 47.8 °F 29.9 in NE 16 mph 28 mph 72.1% 0.01 in
12:09 56.7 °F 48 °F 29.9 in NNE 15.6 mph 26 mph 73% 0.01 in
12:14 56.7 °F 48 °F 29.9 in NE 15.6 mph 25 mph 73% 0.01 in
12:19 56.7 °F 48.2 °F 29.9 in NE 15.6 mph 28.8 mph 73.1% 0 in
12:24 56.8 °F 48.4 °F 29.9 in NE 16.1 mph 29 mph 73.4% 0 in
12:29 56.7 °F 48.6 °F 29.9 in NE 16.3 mph 26 mph 74% 0 in
12:34 56.7 °F 48.6 °F 29.9 in NE 14.4 mph 25.3 mph 74.1% 0 in
12:39 56.3 °F 48.6 °F 29.9 in NE 13.7 mph 33.1 mph 75.3% 0 in
12:44 55.9 °F 48.7 °F 29.9 in NNE 16 mph 33.4 mph 76.3% 0 in
12:49 55.8 °F 48.9 °F 29.9 in NE 16.8 mph 33 mph 77.7% 0 in
12:54 55.4 °F 48.9 °F 29.9 in NNE 15.9 mph 27.9 mph 79% 0 in
12:59 55.2 °F 49.1 °F 29.9 in NNE 15.6 mph 28 mph 79.7% 0 in
13:04 55 °F 49.3 °F 29.9 in NNE 14.9 mph 24 mph 81% 0 in
13:09 54.9 °F 49.6 °F 29.9 in NNE 14.7 mph 25.6 mph 82.3% 0 in
13:14 54.7 °F 49.6 °F 29.8 in NNE 13.5 mph 26 mph 83% 0 in
13:19 54.7 °F 49.6 °F 29.8 in NNE 13 mph 25 mph 83.4% 0 in
13:24 54.5 °F 49.8 °F 29.8 in NNE 14.8 mph 31.1 mph 84.3% 0 in
13:29 54.1 °F 50 °F 29.8 in NNE 15.6 mph 31 mph 85.6% 0 in
13:34 54 °F 50.2 °F 29.8 in NNE 14.2 mph 24 mph 87.1% 0.01 in
13:39 53.8 °F 50.4 °F 29.8 in NE 13.7 mph 23 mph 88.3% 0.01 in
13:44 53.4 °F 50.4 °F 29.8 in NNE 11.9 mph 24.6 mph 89% 0.02 in
13:49 53.2 °F 50.2 °F 29.8 in NNE 11.2 mph 25 mph 89.2% 0.03 in
13:54 53.2 °F 50.4 °F 29.8 in NE 13.7 mph 25 mph 90% 0.03 in
13:59 53.1 °F 50.2 °F 29.8 in NNE 14.7 mph 25.6 mph 90% 0.04 in
14:04 53.1 °F 50.2 °F 29.8 in NE 13.8 mph 26 mph 90% 0.06 in
14:09 53.1 °F 50.5 °F 29.8 in NE 13.5 mph 26 mph 90.9% 0.06 in
14:14 53.1 °F 50.5 °F 29.8 in NE 12.2 mph 19 mph 91% 0.07 in
14:19 53.1 °F 50.5 °F 29.8 in NE 11.8 mph 16.1 mph 91% 0.07 in
14:24 53.1 °F 50.5 °F 29.8 in NE 9.9 mph 16 mph 91% 0.07 in
14:29 53.1 °F 50.5 °F 29.8 in NE 9.2 mph 15 mph 91% 0.07 in
14:34 53.1 °F 50.5 °F 29.8 in NNE 7.6 mph 12 mph 91% 0.07 in
14:39 53.1 °F 50.5 °F 29.8 in NNE 6.9 mph 14 mph 91% 0.06 in
14:44 53.2 °F 50.7 °F 29.8 in NNE 7.3 mph 14 mph 91% 0.06 in
14:49 53.2 °F 50.7 °F 29.8 in NNE 7.4 mph 13 mph 91% 0.05 in
14:54 53.2 °F 50.7 °F 29.8 in NE 7.9 mph 17.5 mph 90.9% 0.06 in
14:59 53.2 °F 50.7 °F 29.8 in NE 8.1 mph 17.3 mph 91% 0.07 in
15:04 53.1 °F 50.5 °F 29.8 in NE 10.1 mph 17 mph 91% 0.06 in
15:09 53.1 °F 50.5 °F 29.8 in NE 10.7 mph 15 mph 91% 0.05 in
15:14 53.1 °F 50.5 °F 29.8 in NNE 8.8 mph 16.1 mph 91% 0.06 in
15:19 52.9 °F 50.4 °F 29.8 in NE 8.1 mph 17.5 mph 91% 0.05 in
15:24 52.9 °F 50.4 °F 29.8 in NE 9.4 mph 18.4 mph 91% 0.05 in
15:29 53.1 °F 50.4 °F 29.8 in NNE 10 mph 18.4 mph 90.5% 0.05 in
15:34 53.1 °F 50.2 °F 29.8 in NNE 9.1 mph 14 mph 90% 0.05 in
15:39 53.2 °F 50.4 °F 29.8 in NE 8.7 mph 14 mph 90% 0.05 in
15:44 53.2 °F 50.4 °F 29.8 in NE 8.3 mph 15.2 mph 90% 0.05 in
15:49 53.4 °F 50.4 °F 29.8 in NE 8.1 mph 18.4 mph 89.3% 0.05 in
15:54 53.2 °F 50.2 °F 29.8 in NE 9.5 mph 24.6 mph 88.8% 0.05 in
15:59 53.1 °F 49.6 °F 29.8 in NE 10 mph 25 mph 88.4% 0.02 in
16:04 52.7 °F 49.5 °F 29.8 in NE 12.7 mph 24 mph 89.1% 0.01 in
16:09 52.2 °F 49.3 °F 29.8 in NE 13.5 mph 27.6 mph 90% 0.03 in
16:14 52 °F 49.3 °F 29.8 in NE 12.8 mph 28 mph 90.8% 0.04 in
16:19 51.6 °F 49.3 °F 29.8 in NE 12.5 mph 21 mph 91.5% 0.06 in
16:24 51.4 °F 49.1 °F 29.8 in NE 10.8 mph 21.9 mph 92% 0.07 in
16:29 51.3 °F 49.3 °F 29.8 in NE 10.2 mph 22 mph 92.7% 0.07 in
16:34 51.3 °F 49.3 °F 29.8 in NE 10.9 mph 16.1 mph 93% 0.08 in
16:39 51.3 °F 49.3 °F 29.8 in NE 11.2 mph 16 mph 93% 0.08 in
16:44 51.3 °F 49.3 °F 29.8 in NE 9.3 mph 13 mph 93% 0.08 in
16:49 51.3 °F 49.3 °F 29.8 in NE 8.5 mph 13.8 mph 93% 0.08 in
16:54 51.3 °F 49.3 °F 29.8 in NE 7 mph 14 mph 93% 0.09 in
16:59 51.3 °F 49.3 °F 29.8 in NE 6.4 mph 9.2 mph 93% 0.09 in
17:04 51.3 °F 49.3 °F 29.8 in NNE 6 mph 9 mph 93% 0.09 in
17:09 51.3 °F 49.3 °F 29.8 in NE 5.9 mph 8 mph 93% 0.08 in
17:14 51.3 °F 49.3 °F 29.8 in NE 3.9 mph 6 mph 93% 0.07 in
17:19 51.4 °F 49.5 °F 29.8 in ONO 3.1 mph 6 mph 93% 0.05 in
17:24 51.4 °F 49.6 °F 29.8 in Oeste 3 mph 6 mph 93.5% 0.03 in
17:29 51.4 °F 49.8 °F 29.8 in OSO 2.9 mph 6.9 mph 94% 0.02 in
17:34 51.6 °F 49.8 °F 29.8 in OSO 2.9 mph 7 mph 94% 0.01 in
17:39 51.6 °F 49.8 °F 29.8 in SSO 2.9 mph 5 mph 94% 0.01 in
17:44 51.6 °F 49.8 °F 29.8 in Sur 2.1 mph 4 mph 94% 0.01 in
17:49 51.6 °F 49.8 °F 29.8 in Sur 1.8 mph   94% 0.01 in
17:54 51.6 °F 49.8 °F 29.8 in SSE 0.5 mph   94% 0 in
17:59 51.6 °F 49.8 °F 29.8 in Calm   2.9 mph 94% 0 in
18:04 51.6 °F 49.8 °F 29.8 in Calm   4.6 mph 94% 0 in
18:09 51.8 °F 50 °F 29.8 in Calm   5.2 mph 94% 0 in
18:14 52 °F 50.2 °F 29.8 in OSO 1.8 mph 5 mph 94% 0 in
18:19 52 °F 50.4 °F 29.8 in OSO 2.4 mph 5 mph 94% 0 in
18:24 52 °F 50.4 °F 29.8 in SO 2.7 mph 5.8 mph 94% 0 in
18:29 52 °F 50.4 °F 29.8 in SO 2.9 mph 6 mph 94% 0 in
18:34 52.2 °F 50.4 °F 29.8 in SSO 2.1 mph 5 mph 94% 0 in
18:39 52.2 °F 50.5 °F 29.8 in Sur 1.8 mph 6.2 mph 94% 0 in
18:44 52.2 °F 50.5 °F 29.8 in SSE 2.7 mph 6.4 mph 94% 0 in
18:49 52.2 °F 50.5 °F 29.8 in SSE 3.1 mph 7.4 mph 94% 0 in
18:54 52.2 °F 50.4 °F 29.8 in SSE 4 mph 8.1 mph 94% 0 in
18:59 52 °F 50.4 °F 29.8 in Sur 4.3 mph 8 mph 94% 0 in
19:04 52 °F 50.4 °F 29.8 in SO 4.3 mph 7 mph 94% 0 in
19:09 52 °F 50.4 °F 29.8 in OSO 4.3 mph 7 mph 94% 0 in
19:14 52.2 °F 50.5 °F 29.8 in OSO 2.9 mph 5 mph 94% 0 in
19:19 52 °F 50.2 °F 29.8 in OSO 2.4 mph 7.4 mph 93.7% 0 in
19:24 52 °F 50 °F 29.8 in OSO 3.3 mph 7 mph 93% 0 in
19:29 52 °F 49.8 °F 29.8 in OSO 3.6 mph 7 mph 92.6% 0 in
19:34 52 °F 49.6 °F 29.8 in OSO 3.9 mph 7 mph 92% 0 in
19:39 52 °F 49.5 °F 29.8 in Oeste 4 mph 6.2 mph 91.3% 0 in
19:44 52 °F 49.3 °F 29.8 in ONO 3.7 mph 7.4 mph 90.9% 0 in
19:49 52 °F 49.1 °F 29.8 in ONO 3.6 mph 8.7 mph 90% 0 in
19:54 52 °F 48.7 °F 29.8 in ONO 4.8 mph 10.4 mph 88.9% 0 in
19:59 52 °F 48.4 °F 29.8 in ONO 5.2 mph 10.4 mph 87.7% 0 in
20:04 52 °F 48.2 °F 29.8 in ONO 6 mph 11.5 mph 87% 0 in
20:09 52 °F 47.8 °F 29.8 in ONO 6.2 mph 12 mph 85.8% 0 in
20:14 52 °F 47.5 °F 29.8 in ONO 6 mph 11.5 mph 84.8% 0 in
20:19 52.2 °F 47.3 °F 29.8 in ONO 5.9 mph 12 mph 83.9% 0 in
20:24 52.2 °F 47.1 °F 29.8 in ONO 6.6 mph 11 mph 83% 0 in
20:29 52.2 °F 46.8 °F 29.8 in ONO 6.9 mph 12.7 mph 82.1% 0 in
20:34 52.3 °F 46.8 °F 29.8 in ONO 6.9 mph 13 mph 81.2% 0 in
20:39 52.3 °F 46.6 °F 29.8 in ONO 6.9 mph 12 mph 80.6% 0 in
20:44 52.3 °F 46.4 °F 29.8 in ONO 6.9 mph 15 mph 80% 0 in
20:49 52.3 °F 46 °F 29.8 in ONO 6.9 mph 15 mph 79.2% 0 in
20:54 52.5 °F 46 °F 29.8 in ONO 7.8 mph 14 mph 78.5% 0 in
20:59 52.5 °F 45.9 °F 29.8 in ONO 8.1 mph 13 mph 78% 0 in
21:04 52.5 °F 45.7 °F 29.8 in Oeste 7.7 mph 13 mph 77.5% 0 in
21:09 52.5 °F 45.5 °F 29.8 in Oeste 7.6 mph 12.7 mph 77% 0 in
21:14 52.5 °F 45.5 °F 29.8 in Oeste 7.5 mph 13 mph 77% 0 in
21:19 52.7 °F 45.7 °F 29.8 in Oeste 7.4 mph 14 mph 77% 0 in
21:24 52.7 °F 45.9 °F 29.8 in Oeste 6.6 mph 14 mph 77.7% 0 in
21:29 52.5 °F 46 °F 29.8 in Oeste 6.4 mph 9.7 mph 78.6% 0 in
21:34 52.3 °F 46.6 °F 29.8 in Oeste 5.7 mph 10.7 mph 80.2% 0 in
21:39 52.2 °F 46.4 °F 29.8 in Oeste 5.4 mph 13 mph 81% 0 in
21:44 52 °F 46.2 °F 29.8 in Oeste 6 mph 13 mph 81% 0 in
21:49 52 °F 46.2 °F 29.8 in OSO 6.2 mph 12.5 mph 81% 0 in
21:54 51.8 °F 46.2 °F 29.8 in OSO 6.7 mph 13 mph 81% 0 in
21:59 51.8 °F 46.2 °F 29.8 in OSO 6.9 mph 10 mph 81% 0 in
22:04 51.8 °F 46.2 °F 29.8 in Oeste 6.3 mph 10.7 mph 81% 0 in
22:09 51.8 °F 45.9 °F 29.8 in OSO 6.2 mph 13 mph 80.1% 0 in
22:14 51.8 °F 45.7 °F 29.8 in OSO 6.7 mph 13 mph 79.5% 0 in
22:19 52 °F 45.7 °F 29.8 in OSO 6.9 mph 15.9 mph 79% 0 in
22:24 52 °F 45.3 °F 29.8 in Oeste 7.4 mph 16.1 mph 78% 0 in
22:29 52 °F 45.3 °F 29.8 in Oeste 7.6 mph 16 mph 78% 0 in
22:34 52 °F 45.3 °F 29.8 in OSO 7.6 mph 16.1 mph 78% 0 in
22:39 52 °F 45.3 °F 29.8 in OSO 7.6 mph 16 mph 78% 0 in
22:44 52 °F 45.3 °F 29.8 in OSO 7.1 mph 13 mph 78% 0 in
22:49 51.8 °F 45.3 °F 29.8 in Oeste 6.9 mph 16.1 mph 78.4% 0 in
22:54 51.6 °F 45.3 °F 29.8 in Oeste 6.9 mph 16 mph 79% 0 in
22:59 51.6 °F 45.1 °F 29.8 in Oeste 6.9 mph 19 mph 78.5% 0 in
23:04 51.6 °F 45.3 °F 29.8 in Oeste 9.1 mph 19 mph 78.9% 0 in
23:09 51.6 °F 45.1 °F 29.8 in Oeste 9.7 mph 17.3 mph 78.4% 0 in
23:14 51.6 °F 45.3 °F 29.8 in Oeste 9.3 mph 17.3 mph 78.9% 0 in
23:19 51.6 °F 45.1 °F 29.8 in Oeste 9.2 mph 17.3 mph 78.7% 0 in
23:24 51.6 °F 45.1 °F 29.8 in Oeste 7.5 mph 16.1 mph 78.7% 0 in
23:29 51.6 °F 45 °F 29.8 in Oeste 6.9 mph 16.1 mph 78% 0 in
23:34 51.8 °F 45.1 °F 29.8 in Oeste 7.8 mph 16 mph 78% 0 in
23:39 51.8 °F 45.1 °F 29.8 in Oeste 8.1 mph 14 mph 78% 0 in
23:44 51.8 °F 45.1 °F 29.8 in Oeste 6.7 mph 15.2 mph 78% 0 in
23:49 51.6 °F 45.1 °F 29.8 in OSO 6.2 mph 15 mph 78% 0 in
23:54 51.6 °F 45 °F 29.8 in OSO 7.2 mph 18.4 mph 78% 0 in
23:59 51.6 °F 45 °F 29.8 in OSO 7.6 mph 18 mph 78% 0 in
Murcia-Puente Tocinos, España
Compliments of Weather Underground - 3 mb

La estación de MeteoMurcia.com, publica sus datos en los siguientes proyectos:

Weather Underground PWS IMURCIAP2 Meteoclimatic www.awekas.at

W3Counter
Web Analytics